createdAt,value
2018-11-21T00:00:12.043Z,95088.59
2018-11-21T00:02:40.818Z,95083.24
2018-11-21T00:05:09.599Z,95067.98
2018-11-21T00:07:38.444Z,95062.31
2018-11-21T00:10:11.785Z,95079.20
2018-11-21T00:12:42.005Z,95072.78
2018-11-21T00:15:11.873Z,95086.39
2018-11-21T00:17:40.563Z,95071.14
2018-11-21T00:20:10.524Z,95068.20
2018-11-21T00:22:39.543Z,95069.58
2018-11-21T00:25:08.338Z,95067.13
2018-11-21T00:27:37.038Z,95047.98
2018-11-21T00:30:08.763Z,95049.80
2018-11-21T00:32:37.661Z,95043.19
2018-11-21T00:35:08.133Z,95039.56
2018-11-21T00:37:36.833Z,95036.96
2018-11-21T00:40:08.723Z,95023.30
2018-11-21T00:42:38.131Z,95022.05
2018-11-21T00:45:07.546Z,95014.14
2018-11-21T00:47:36.270Z,95014.88
2018-11-21T00:50:05.449Z,95018.84
2018-11-21T00:52:34.180Z,95020.62
2018-11-21T00:55:03.253Z,95015.62
2018-11-21T00:57:32.154Z,95015.43
2018-11-21T01:00:00.922Z,95008.12
2018-11-21T01:02:29.666Z,95010.23
2018-11-21T01:04:58.506Z,95008.05
2018-11-21T01:07:27.225Z,94988.56
2018-11-21T01:09:55.964Z,94977.36
2018-11-21T01:12:24.748Z,94974.20
2018-11-21T01:14:53.495Z,94970.20
2018-11-21T01:17:22.259Z,94972.33
2018-11-21T01:19:51.049Z,94976.77
2018-11-21T01:22:19.799Z,94966.79
2018-11-21T01:24:48.559Z,94963.83
2018-11-21T01:27:17.279Z,94976.63
2018-11-21T01:29:46.153Z,94994.73
2018-11-21T01:32:14.957Z,94987.61
2018-11-21T01:34:43.658Z,94973.20
2018-11-21T01:37:12.473Z,94962.67
2018-11-21T01:39:41.263Z,94964.19
2018-11-21T01:42:09.998Z,94970.39
2018-11-21T01:44:38.683Z,94975.14
2018-11-21T01:47:07.507Z,94968.16
2018-11-21T01:49:36.209Z,94973.54
2018-11-21T01:52:05.210Z,94976.88
2018-11-21T01:54:33.938Z,94979.88
2018-11-21T01:57:02.649Z,94979.22
2018-11-21T01:59:31.404Z,94976.47
2018-11-21T02:02:00.323Z,94976.66
2018-11-21T02:04:29.021Z,94960.25
2018-11-21T02:06:58.047Z,94952.28
2018-11-21T02:09:26.844Z,94938.53
2018-11-21T02:11:55.722Z,94944.00
2018-11-21T02:14:24.539Z,94968.42
2018-11-21T02:16:53.309Z,94971.58
2018-11-21T02:19:22.032Z,94967.88
2018-11-21T02:21:50.799Z,94938.23
2018-11-21T02:24:19.533Z,94939.30
2018-11-21T02:26:48.287Z,94939.84
2018-11-21T02:29:17.244Z,94932.08
2018-11-21T02:31:45.975Z,94934.95
2018-11-21T02:34:14.723Z,94929.67
2018-11-21T02:36:43.486Z,94933.84
2018-11-21T02:39:12.545Z,94917.16
2018-11-21T02:41:41.330Z,94933.24
2018-11-21T02:44:10.088Z,94916.77
2018-11-21T02:46:38.804Z,94924.47
2018-11-21T02:49:07.734Z,94902.84
2018-11-21T02:51:36.442Z,94916.99
2018-11-21T02:54:05.342Z,94907.48
2018-11-21T02:57:10.329Z,94910.30
2018-11-21T02:59:39.239Z,94917.03
2018-11-21T03:02:08.029Z,94907.39
2018-11-21T03:04:36.838Z,94906.16
2018-11-21T03:07:05.802Z,94876.13
2018-11-21T03:09:34.879Z,94893.84
2018-11-21T03:12:03.772Z,94878.31
2018-11-21T03:14:32.575Z,94882.53
2018-11-21T03:17:01.435Z,94876.10
2018-11-21T03:19:30.188Z,94870.03
2018-11-21T03:21:59.092Z,94846.02
2018-11-21T03:24:27.940Z,94867.67
2018-11-21T03:26:56.723Z,94858.78
2018-11-21T03:29:25.714Z,94862.38
2018-11-21T03:31:54.549Z,94861.92
2018-11-21T03:34:23.369Z,94865.44
2018-11-21T03:36:53.477Z,94866.83
2018-11-21T03:39:23.295Z,94869.81
2018-11-21T03:41:52.033Z,94862.25
2018-11-21T03:44:20.745Z,94862.48
2018-11-21T03:46:49.771Z,94853.57
2018-11-21T03:49:18.512Z,94853.95
2018-11-21T03:51:47.246Z,94854.98
2018-11-21T03:54:15.959Z,94853.83
2018-11-21T03:56:44.613Z,94853.04
2018-11-21T03:59:13.308Z,94846.16
2018-11-21T04:01:42.114Z,94841.98
2018-11-21T04:04:10.909Z,94835.81
2018-11-21T04:06:39.613Z,94825.67
2018-11-21T04:09:10.202Z,94829.41
2018-11-21T04:11:38.957Z,94823.07
2018-11-21T04:14:08.130Z,94825.95
2018-11-21T04:16:36.887Z,94827.73
2018-11-21T04:19:05.669Z,94822.89
2018-11-21T04:21:34.454Z,94822.20
2018-11-21T04:24:03.312Z,94823.88
2018-11-21T04:26:32.024Z,94820.24
2018-11-21T04:29:00.752Z,94818.20
2018-11-21T04:31:29.460Z,94813.38
2018-11-21T04:33:58.343Z,94801.05
2018-11-21T04:36:27.025Z,94810.63
2018-11-21T04:38:55.810Z,94806.12
2018-11-21T04:41:24.553Z,94805.86
2018-11-21T04:43:53.288Z,94798.77
2018-11-21T04:46:22.027Z,94801.03
2018-11-21T04:48:50.754Z,94800.28
2018-11-21T04:51:19.574Z,94794.64
2018-11-21T04:53:48.379Z,94800.17
2018-11-21T04:56:17.152Z,94788.37
2018-11-21T04:58:45.902Z,94792.64
2018-11-21T05:01:14.601Z,94788.64
2018-11-21T05:03:43.393Z,94787.65
2018-11-21T05:06:12.354Z,94784.73
2018-11-21T05:08:41.112Z,94781.59
2018-11-21T05:11:09.959Z,94780.28
2018-11-21T05:13:38.699Z,94787.22
2018-11-21T05:16:07.759Z,94789.00
2018-11-21T05:18:36.412Z,94790.09
2018-11-21T05:21:05.253Z,94787.01
2018-11-21T05:23:34.067Z,94783.85
2018-11-21T05:26:02.886Z,94777.56
2018-11-21T05:28:31.588Z,94780.28
2018-11-21T05:31:00.371Z,94778.27
2018-11-21T05:33:29.078Z,94779.28
2018-11-21T05:35:57.843Z,94780.21
2018-11-21T05:38:26.526Z,94778.14
2018-11-21T05:40:55.253Z,94788.20
2018-11-21T05:43:24.116Z,94784.44
2018-11-21T05:45:52.882Z,94779.67
2018-11-21T05:48:21.547Z,94780.44
2018-11-21T05:50:50.415Z,94792.13
2018-11-21T05:53:19.302Z,94772.55
2018-11-21T05:55:48.115Z,94774.27
2018-11-21T05:58:16.824Z,94775.27
2018-11-21T06:00:49.101Z,94776.17
2018-11-21T06:03:14.467Z,94777.04
2018-11-21T06:05:43.306Z,94782.94
2018-11-21T06:08:12.336Z,94781.59
2018-11-21T06:10:41.092Z,94789.45
2018-11-21T06:13:09.954Z,94791.46
2018-11-21T06:15:38.802Z,94789.34
2018-11-21T06:18:07.498Z,94787.87
2018-11-21T06:20:36.265Z,94786.47
2018-11-21T06:23:05.062Z,94784.85
2018-11-21T06:25:33.760Z,94787.66
2018-11-21T06:28:02.465Z,94790.86
2018-11-21T06:30:31.311Z,94792.84
2018-11-21T06:33:00.004Z,94793.53
2018-11-21T06:35:28.676Z,94798.62
2018-11-21T06:37:57.476Z,94792.41
2018-11-21T06:40:26.174Z,94793.33
2018-11-21T06:42:56.360Z,94798.70
2018-11-21T06:45:26.028Z,94799.98
2018-11-21T06:47:54.931Z,94797.23
2018-11-21T06:50:23.804Z,94799.75
2018-11-21T06:52:53.404Z,94801.38
2018-11-21T06:55:22.130Z,94797.72
2018-11-21T06:57:50.935Z,94804.16
2018-11-21T07:00:19.925Z,94801.97
2018-11-21T07:02:48.621Z,94807.73
2018-11-21T07:05:17.435Z,94808.77
2018-11-21T07:07:46.168Z,94798.36
2018-11-21T07:10:15.863Z,94798.58
2018-11-21T07:12:45.430Z,94797.00
2018-11-21T07:15:14.099Z,94796.27
2018-11-21T07:17:42.785Z,94791.06
2018-11-21T07:20:13.080Z,94790.05
2018-11-21T07:22:42.312Z,94797.00
2018-11-21T07:25:17.049Z,94787.31
2018-11-21T07:27:45.872Z,94783.72
2018-11-21T07:30:15.589Z,94792.78
2018-11-21T07:32:44.405Z,94805.70
2018-11-21T07:35:17.763Z,94798.94
2018-11-21T07:37:42.594Z,94801.52
2018-11-21T07:40:13.077Z,94805.09
2018-11-21T07:42:41.882Z,94801.52
2018-11-21T07:45:12.453Z,94802.27
2018-11-21T07:47:41.830Z,94802.05
2018-11-21T07:50:13.528Z,94806.61
2018-11-21T07:52:42.501Z,94807.82
2018-11-21T07:55:11.941Z,94810.81
2018-11-21T07:57:42.218Z,94817.36
2018-11-21T08:01:16.209Z,94819.55
2018-11-21T08:03:46.897Z,94811.98
2018-11-21T08:06:18.433Z,94822.30
2018-11-21T08:09:24.275Z,94830.64
2018-11-21T08:12:10.758Z,94837.64
2018-11-21T08:15:01.445Z,94837.42
2018-11-21T08:17:47.894Z,94831.78
2018-11-21T08:20:27.935Z,94838.24
2018-11-21T08:23:14.468Z,94840.83
2018-11-21T08:25:52.530Z,94842.36
2018-11-21T08:28:23.207Z,94845.05
2018-11-21T08:30:52.074Z,94837.41
2018-11-21T08:33:21.097Z,94839.97
2018-11-21T08:35:52.105Z,94829.46
2018-11-21T08:38:23.555Z,94836.06
2018-11-21T08:40:52.760Z,94834.09
2018-11-21T08:43:21.486Z,94833.61
2018-11-21T08:45:50.161Z,94833.17
2018-11-21T08:48:19.652Z,94840.75
2018-11-21T08:50:48.346Z,94839.68
2018-11-21T08:53:17.092Z,94837.08
2018-11-21T08:55:45.780Z,94835.19
2018-11-21T08:58:14.562Z,94839.68
2018-11-21T09:00:43.269Z,94837.97
2018-11-21T09:03:13.174Z,94833.97
2018-11-21T09:05:41.875Z,94839.53
2018-11-21T09:08:10.986Z,94843.34
2018-11-21T09:10:39.636Z,94839.06
2018-11-21T09:13:08.311Z,94843.37
2018-11-21T09:15:37.157Z,94843.03
2018-11-21T09:18:08.977Z,94844.59
2018-11-21T09:20:37.647Z,94840.69
2018-11-21T09:23:06.442Z,94842.45
2018-11-21T09:25:35.155Z,94849.03
2018-11-21T09:28:03.901Z,94843.33
2018-11-21T09:30:32.591Z,94852.75
2018-11-21T09:33:01.619Z,94845.71
2018-11-21T09:35:30.666Z,94860.82
2018-11-21T09:37:59.427Z,94852.01
2018-11-21T09:40:28.181Z,94861.01
2018-11-21T09:42:57.248Z,94857.67
2018-11-21T09:45:26.299Z,94866.28
2018-11-21T09:47:55.011Z,94863.61
2018-11-21T09:50:28.173Z,94857.87
2018-11-21T09:52:56.955Z,94857.31
2018-11-21T09:55:25.675Z,94847.41
2018-11-21T09:57:54.369Z,94846.82
2018-11-21T10:00:59.120Z,94854.67
2018-11-21T10:03:29.711Z,94842.04
2018-11-21T10:06:21.900Z,94841.97
2018-11-21T10:08:52.361Z,94843.81
2018-11-21T10:11:21.460Z,94845.78
2018-11-21T10:13:50.346Z,94843.48
2018-11-21T10:16:19.167Z,94846.75
2018-11-21T10:18:52.390Z,94845.52
2018-11-21T10:21:22.765Z,94844.48
2018-11-21T10:23:51.437Z,94845.38
2018-11-21T10:26:20.221Z,94838.30
2018-11-21T10:28:49.731Z,94842.38
2018-11-21T10:31:18.516Z,94843.19
2018-11-21T10:33:47.399Z,94836.19
2018-11-21T10:36:16.157Z,94837.48
2018-11-21T10:38:45.018Z,94841.22
2018-11-21T10:41:13.742Z,94837.27
2018-11-21T10:43:42.586Z,94841.00
2018-11-21T10:46:11.288Z,94840.58
2018-11-21T10:48:39.969Z,94838.57
2018-11-21T10:51:08.697Z,94838.97
2018-11-21T10:53:37.609Z,94843.15
2018-11-21T10:56:06.722Z,94839.72
2018-11-21T10:58:35.467Z,94838.03
2018-11-21T11:01:21.573Z,94836.27
2018-11-21T11:03:52.540Z,94837.05
2018-11-21T11:06:33.083Z,94837.70
2018-11-21T11:09:19.300Z,94839.32
2018-11-21T11:12:05.977Z,94839.28
2018-11-21T11:15:10.082Z,94834.98
2018-11-21T11:18:16.185Z,94840.04
2018-11-21T11:21:09.936Z,94839.22
2018-11-21T11:23:56.146Z,94835.08
2018-11-21T11:26:44.643Z,94837.33
2018-11-21T11:29:30.986Z,94839.99
2018-11-21T11:32:17.651Z,94834.95
2018-11-21T11:35:08.286Z,94833.66
2018-11-21T11:37:54.765Z,94834.62
2018-11-21T11:40:51.622Z,94833.99
2018-11-21T11:43:38.103Z,94833.44
2018-11-21T11:46:19.640Z,94825.59
2018-11-21T11:49:05.810Z,94824.84
2018-11-21T11:51:59.743Z,94815.89
2018-11-21T11:55:02.412Z,94822.05
2018-11-21T11:57:58.268Z,94815.56
2018-11-21T12:00:58.332Z,94824.98
2018-11-21T12:04:04.375Z,94828.03
2018-11-21T12:07:10.295Z,94828.16
2018-11-21T12:09:56.842Z,94827.52
2018-11-21T12:12:57.195Z,94829.08
2018-11-21T12:15:47.995Z,94833.87
2018-11-21T12:18:34.446Z,94829.22
2018-11-21T12:21:22.951Z,94834.73
2018-11-21T12:24:08.135Z,94835.07
2018-11-21T12:26:54.721Z,94840.47
2018-11-21T12:29:45.601Z,94843.81
2018-11-21T12:32:42.730Z,94842.94
2018-11-21T12:35:29.424Z,94849.56
2018-11-21T12:38:17.283Z,94844.84
2018-11-21T12:41:14.858Z,94849.69
2018-11-21T12:43:53.736Z,94848.16
2018-11-21T12:46:49.652Z,94851.97
2018-11-21T12:49:36.155Z,94853.15
2018-11-21T12:52:24.706Z,94853.27
2018-11-21T12:55:15.249Z,94852.87
2018-11-21T12:58:03.125Z,94848.91
2018-11-21T13:00:59.848Z,94854.14
2018-11-21T13:03:46.767Z,94854.89
2018-11-21T13:06:34.623Z,94859.41
2018-11-21T13:09:25.605Z,94861.74
2018-11-21T13:12:12.086Z,94864.59
2018-11-21T13:14:49.684Z,94861.52
2018-11-21T13:17:40.453Z,94861.72
2018-11-21T13:20:27.314Z,94861.16
2018-11-21T13:23:24.561Z,94877.27
